ELS weather

Ben Schoeman Airport
East London, Eastern Cape, South Africa

Public forecast

Using degrees Celsius for public forecast. Weather courtesy of forecast.io.

METAR (pilot weather report)

Report is more than 2 hours old.

Retrieved 2019/02/15 18:00 UTC (5 hours ago):

FAEL 151800Z 02004KT 340V040 CAVOK 26/21 Q1009

TAF (pilot weather forecast)

Forecast is more than 12 hours old.

Retrieved 2019/01/15 06:33 UTC (1 month ago):

TAF TAF FAEL 150600Z 1506/1518 25004KT 9999 BKN025 BECMG 1507/1509 17007KT BECMG 1514/1516 BKN014 TX26/1510Z TN21/1518Z